Time;durP1;ratioP1;P1;durP2;ratioP2;P2;SDS_P1;SDS_P2;PMS_P1;PMS_P2;Temp;Humidity;BMP_temperature;BMP_pressure;BME280_temperature;BME280_humidity;BME280_pressure;Samples;Min_cycle;Max_cycle;Signal;HPM_P1;HPM_P2
2023/02/28 00:00:10;;;;;;;11.90;7.28;;;22.40;38.70;;;;;;6256574;27;82245;-58
2023/02/28 00:03:11;;;;;;;13.50;6.97;;;22.40;38.50;;;;;;6274754;27;81268;-57
2023/02/28 00:06:11;;;;;;;13.43;7.03;;;22.40;38.60;;;;;;6274962;27;80908;-57
2023/02/28 00:09:12;;;;;;;11.15;6.63;;;22.40;38.70;;;;;;6272675;27;81027;-58
2023/02/28 00:12:12;;;;;;;13.50;7.55;;;22.40;38.60;;;;;;6267075;27;80699;-59
2023/02/28 00:15:13;;;;;;;11.93;6.95;;;22.40;38.60;;;;;;6274216;27;81131;-55
2023/02/28 00:18:13;;;;;;;9.18;6.07;;;22.40;38.60;;;;;;6274097;27;80453;-57
2023/02/28 00:21:14;;;;;;;11.90;6.85;;;22.40;38.70;;;;;;6274690;27;80345;-60
2023/02/28 00:24:14;;;;;;;14.15;7.55;;;22.40;38.70;;;;;;6266612;27;80622;-62
2023/02/28 00:27:15;;;;;;;11.57;7.20;;;22.40;38.80;;;;;;6264010;27;80416;-60
2023/02/28 00:30:15;;;;;;;13.00;7.97;;;22.40;38.60;;;;;;6263480;27;81228;-61
2023/02/28 00:33:16;;;;;;;11.95;7.50;;;22.40;38.50;;;;;;6241319;27;83417;-62
2023/02/28 00:36:16;;;;;;;11.00;6.75;;;22.40;38.70;;;;;;6266638;27;80998;-62
2023/02/28 00:39:17;;;;;;;13.02;7.38;;;22.30;38.50;;;;;;6243203;27;80537;-61
2023/02/28 00:42:17;;;;;;;12.43;6.85;;;22.40;38.60;;;;;;6274790;27;83815;-60
2023/02/28 00:45:18;;;;;;;13.18;7.55;;;22.30;38.70;;;;;;6261578;27;85539;-59
2023/02/28 00:48:19;;;;;;;13.18;7.72;;;22.30;38.80;;;;;;6277416;27;80222;-60
2023/02/28 00:51:19;;;;;;;11.13;6.95;;;22.30;38.90;;;;;;6268701;27;80491;-61
2023/02/28 00:54:20;;;;;;;12.70;7.22;;;22.30;39.00;;;;;;6238390;28;83802;-61
2023/02/28 00:57:21;;;;;;;16.38;8.15;;;22.30;38.70;;;;;;6276554;27;83062;-60
2023/02/28 01:00:22;;;;;;;13.40;7.03;;;22.30;39.00;;;;;;6248592;27;81479;-59
2023/02/28 01:03:24;;;;;;;12.98;7.03;;;22.40;38.70;;;;;;6260649;27;83089;-59
2023/02/28 01:06:25;;;;;;;12.20;7.22;;;22.30;38.80;;;;;;6279105;27;81820;-59
2023/02/28 01:09:25;;;;;;;12.70;6.95;;;22.40;39.00;;;;;;6278400;27;80678;-60
2023/02/28 01:12:26;;;;;;;11.82;7.43;;;22.30;38.90;;;;;;6270078;27;82096;-59
2023/02/28 01:15:26;;;;;;;13.40;8.07;;;22.40;38.90;;;;;;6241992;27;82031;-59
2023/02/28 01:18:28;;;;;;;12.13;7.47;;;22.30;38.80;;;;;;6278337;27;82193;-61
2023/02/28 01:21:29;;;;;;;11.73;7.35;;;22.40;39.10;;;;;;6276292;27;80295;-60
2023/02/28 01:24:29;;;;;;;13.15;7.47;;;22.40;38.80;;;;;;6277445;27;80439;-61
2023/02/28 01:27:30;;;;;;;12.45;7.22;;;22.30;38.80;;;;;;6264802;27;80549;-62
2023/02/28 01:30:30;;;;;;;13.52;8.50;;;22.30;38.60;;;;;;6246737;27;81464;-62
2023/02/28 01:33:31;;;;;;;15.38;7.72;;;22.40;38.70;;;;;;6279010;27;80272;-61
2023/02/28 01:36:33;;;;;;;12.57;7.18;;;22.40;38.60;;;;;;6236449;28;81967;-60
2023/02/28 01:39:33;;;;;;;12.10;7.60;;;22.30;38.60;;;;;;6261808;27;81946;-60
2023/02/28 01:42:34;;;;;;;11.13;7.40;;;22.30;38.60;;;;;;6265310;27;80648;-61
2023/02/28 01:45:34;;;;;;;12.00;7.55;;;22.40;38.60;;;;;;6263748;27;81220;-61
2023/02/28 01:48:35;;;;;;;12.77;7.20;;;22.30;38.40;;;;;;6259057;27;81934;-60
2023/02/28 01:51:35;;;;;;;12.82;7.50;;;22.30;38.50;;;;;;6246580;27;83172;-61
2023/02/28 01:54:38;;;;;;;15.18;8.25;;;22.30;38.30;;;;;;6277904;27;80917;-61
2023/02/28 01:57:39;;;;;;;14.25;8.18;;;22.30;38.10;;;;;;6236488;28;81719;-62
2023/02/28 02:00:42;;;;;;;12.27;7.43;;;22.30;38.30;;;;;;6247076;28;82978;-62
2023/02/28 02:03:44;;;;;;;13.52;7.82;;;22.30;38.10;;;;;;6255853;27;83504;-62
2023/02/28 02:06:46;;;;;;;13.70;7.70;;;22.30;38.10;;;;;;6259053;27;81187;-61
2023/02/28 02:09:46;;;;;;;14.38;8.32;;;22.30;38.10;;;;;;6270172;27;80956;-60
2023/02/28 02:12:47;;;;;;;13.00;8.23;;;22.30;37.80;;;;;;6266557;27;80232;-61
2023/02/28 02:15:47;;;;;;;13.70;7.53;;;22.30;37.90;;;;;;6277279;27;80375;-58
2023/02/28 02:18:48;;;;;;;11.65;7.82;;;22.30;37.90;;;;;;6278591;27;80055;-59
2023/02/28 02:21:50;;;;;;;12.27;7.68;;;22.30;37.80;;;;;;6276863;27;81137;-60
2023/02/28 02:24:50;;;;;;;12.07;7.80;;;22.30;37.90;;;;;;6237600;27;81759;-61
2023/02/28 02:27:51;;;;;;;13.98;8.07;;;22.30;37.70;;;;;;6246561;27;83321;-60
2023/02/28 02:30:52;;;;;;;13.95;7.65;;;22.30;37.60;;;;;;6267770;27;80778;-62
2023/02/28 02:33:52;;;;;;;12.27;7.53;;;22.30;37.70;;;;;;6277027;27;80616;-59
2023/02/28 02:36:53;;;;;;;11.93;7.47;;;22.30;37.60;;;;;;6241693;27;81790;-59
2023/02/28 02:39:53;;;;;;;13.00;7.78;;;22.20;37.30;;;;;;6267975;27;80874;-59
2023/02/28 02:42:56;;;;;;;13.15;7.60;;;22.30;37.30;;;;;;6278334;27;80263;-59
2023/02/28 02:45:57;;;;;;;11.10;6.90;;;22.30;37.40;;;;;;6266332;27;80486;-59
2023/02/28 02:48:57;;;;;;;12.82;8.15;;;22.20;37.30;;;;;;6265945;27;80616;-57
2023/02/28 02:51:58;;;;;;;11.82;7.45;;;22.20;37.30;;;;;;6267278;27;81826;-58
2023/02/28 02:55:00;;;;;;;12.57;8.18;;;22.20;37.20;;;;;;6232891;28;82376;-58
2023/02/28 02:58:01;;;;;;;13.10;7.60;;;22.20;37.20;;;;;;6259568;27;80509;-57
2023/02/28 03:01:01;;;;;;;11.93;7.55;;;22.20;37.20;;;;;;6249178;27;83663;-57
2023/02/28 03:04:02;;;;;;;12.30;7.40;;;22.20;37.10;;;;;;6252398;27;81637;-57
2023/02/28 03:07:02;;;;;;;13.70;7.68;;;22.20;37.40;;;;;;6258054;27;81576;-59
2023/02/28 03:10:03;;;;;;;13.65;8.40;;;22.20;37.20;;;;;;6241748;27;80533;-59
2023/02/28 03:13:04;;;;;;;13.15;8.15;;;22.20;37.30;;;;;;6272596;27;80530;-59
2023/02/28 03:16:05;;;;;;;14.32;8.15;;;22.20;37.30;;;;;;6276111;27;80778;-59
2023/02/28 03:19:06;;;;;;;15.52;8.13;;;22.20;37.20;;;;;;6256978;27;83262;-58
2023/02/28 03:22:07;;;;;;;12.98;8.07;;;22.20;37.20;;;;;;6258042;27;81635;-58
2023/02/28 03:25:09;;;;;;;14.35;8.45;;;22.20;37.30;;;;;;6258708;27;83226;-62
2023/02/28 03:28:10;;;;;;;13.35;8.43;;;22.20;37.30;;;;;;6262196;27;80910;-61
2023/02/28 03:31:10;;;;;;;14.65;8.63;;;22.20;37.30;;;;;;6274872;27;80585;-62
2023/02/28 03:34:11;;;;;;;13.95;8.32;;;22.20;37.10;;;;;;6271329;27;80466;-61
2023/02/28 03:37:11;;;;;;;12.30;9.32;;;22.10;37.20;;;;;;6276302;27;81263;-61
2023/02/28 03:40:13;;;;;;;13.75;8.30;;;22.10;36.90;;;;;;6258643;27;80440;-62
2023/02/28 03:43:13;;;;;;;12.45;7.90;;;22.10;37.10;;;;;;6275568;27;80759;-62
2023/02/28 03:46:14;;;;;;;13.32;7.90;;;22.10;37.10;;;;;;6275039;27;80761;-63
2023/02/28 03:49:14;;;;;;;14.90;8.85;;;22.20;37.20;;;;;;6272210;27;81209;-62
2023/02/28 03:52:15;;;;;;;15.40;8.57;;;22.10;37.00;;;;;;6273826;27;80977;-63
2023/02/28 03:55:15;;;;;;;16.30;8.80;;;22.10;36.90;;;;;;6274720;27;81568;-64
2023/02/28 03:58:16;;;;;;;14.18;8.35;;;22.20;37.10;;;;;;6274690;27;80617;-65
2023/02/28 04:01:16;;;;;;;14.35;8.35;;;22.10;36.90;;;;;;6259826;27;80301;-50
2023/02/28 04:04:17;;;;;;;12.48;7.65;;;22.10;36.90;;;;;;6272094;27;80517;-52
2023/02/28 04:07:18;;;;;;;13.38;8.07;;;22.10;36.90;;;;;;6275381;27;80377;-50
2023/02/28 04:10:18;;;;;;;15.05;8.82;;;22.10;37.00;;;;;;6271852;27;81363;-49
2023/02/28 04:13:19;;;;;;;16.05;8.98;;;22.10;36.90;;;;;;6271636;27;80453;-54
2023/02/28 04:16:19;;;;;;;15.25;8.93;;;22.10;37.00;;;;;;6272017;27;80280;-49
2023/02/28 04:19:20;;;;;;;15.80;9.05;;;22.20;36.80;;;;;;6275802;27;80381;-49
2023/02/28 04:22:20;;;;;;;18.35;8.93;;;22.20;36.70;;;;;;6276474;27;81127;-50
2023/02/28 04:25:21;;;;;;;14.65;8.77;;;22.30;36.60;;;;;;6268833;27;82022;-53
2023/02/28 04:28:23;;;;;;;15.43;8.93;;;22.40;36.60;;;;;;6272558;27;80530;-49
2023/02/28 04:31:23;;;;;;;14.18;8.88;;;22.40;36.50;;;;;;6279452;27;84450;-48
2023/02/28 04:34:24;;;;;;;13.50;8.52;;;22.50;36.40;;;;;;6277801;27;81754;-50
2023/02/28 04:37:28;;;;;;;14.65;9.10;;;22.50;36.40;;;;;;6277166;27;81031;-50
2023/02/28 04:40:29;;;;;;;15.65;9.35;;;22.60;36.30;;;;;;6265424;27;81462;-50
2023/02/28 04:43:29;;;;;;;14.98;9.48;;;22.60;36.30;;;;;;6268840;27;80558;-50
2023/02/28 04:46:30;;;;;;;16.63;9.48;;;22.60;36.20;;;;;;6277695;27;79940;-49
2023/02/28 04:49:31;;;;;;;13.20;9.20;;;22.70;36.30;;;;;;6276741;27;80670;-48
2023/02/28 04:52:31;;;;;;;15.57;9.65;;;22.70;36.20;;;;;;6278932;27;80681;-50
2023/02/28 04:55:32;;;;;;;30.27;10.00;;;22.70;35.90;;;;;;6278053;27;80644;-49
2023/02/28 04:58:32;;;;;;;17.00;9.52;;;22.80;35.60;;;;;;6238393;27;83278;-51
2023/02/28 05:01:33;;;;;;;19.00;10.55;;;22.80;35.60;;;;;;6269147;27;83382;-49
2023/02/28 05:04:35;;;;;;;14.00;8.90;;;22.80;35.30;;;;;;6250425;27;83793;-61
2023/02/28 05:07:35;;;;;;;17.77;9.48;;;22.80;35.30;;;;;;6278718;27;83529;-62
2023/02/28 05:10:36;;;;;;;18.77;9.90;;;22.90;34.80;;;;;;6257351;27;81487;-47
2023/02/28 05:13:36;;;;;;;15.48;10.05;;;22.90;34.70;;;;;;6266356;27;80288;-50
2023/02/28 05:16:37;;;;;;;47.35;11.07;;;22.90;34.60;;;;;;6274617;27;83080;-52
2023/02/28 05:19:37;;;;;;;15.10;9.52;;;22.90;34.80;;;;;;6256556;27;83679;-56
2023/02/28 05:22:38;;;;;;;17.65;10.02;;;22.90;35.10;;;;;;6271682;27;85113;-54
2023/02/28 05:25:38;;;;;;;16.52;9.70;;;22.90;35.20;;;;;;6259605;27;88130;-50
2023/02/28 05:28:39;;;;;;;15.40;9.70;;;22.90;35.20;;;;;;6266074;27;82739;-52
2023/02/28 05:31:39;;;;;;;16.30;9.00;;;22.90;35.40;;;;;;6269564;27;80784;-55
2023/02/28 05:34:40;;;;;;;19.30;9.10;;;22.90;35.50;;;;;;6261668;27;80472;-53
2023/02/28 05:37:40;;;;;;;16.02;9.18;;;22.90;35.90;;;;;;6268790;27;81054;-60
2023/02/28 05:40:41;;;;;;;16.52;10.00;;;22.90;35.90;;;;;;6262668;27;80755;-58
2023/02/28 05:43:41;;;;;;;19.58;9.55;;;23.00;36.00;;;;;;6268409;27;82766;-64
2023/02/28 05:46:42;;;;;;;14.30;9.20;;;23.00;36.40;;;;;;6260775;27;83043;-67
2023/02/28 05:49:42;;;;;;;17.48;9.48;;;23.10;36.10;;;;;;6261576;27;80471;-65
2023/02/28 05:52:43;;;;;;;14.05;9.00;;;23.10;35.80;;;;;;6262025;27;80680;-64
2023/02/28 05:55:43;;;;;;;15.63;9.25;;;23.10;35.40;;;;;;6256040;27;80648;-54
2023/02/28 05:58:44;;;;;;;15.48;8.48;;;23.10;35.30;;;;;;6263759;27;80745;-52
2023/02/28 06:01:47;;;;;;;15.93;9.82;;;23.10;35.80;;;;;;6259829;27;82314;-55
2023/02/28 06:04:48;;;;;;;18.27;10.57;;;23.10;35.60;;;;;;6263472;27;80775;-52
2023/02/28 06:07:48;;;;;;;17.33;9.80;;;23.10;35.60;;;;;;6265572;27;83087;-52
2023/02/28 06:10:49;;;;;;;17.48;10.32;;;23.10;35.40;;;;;;6267508;27;82959;-59
2023/02/28 06:13:50;;;;;;;16.92;9.77;;;23.10;36.10;;;;;;6262524;27;84971;-59
2023/02/28 06:16:50;;;;;;;18.90;9.90;;;23.10;35.90;;;;;;6268404;27;82754;-60
2023/02/28 06:19:51;;;;;;;17.52;9.85;;;23.00;36.00;;;;;;6258814;27;81143;-59
2023/02/28 06:22:51;;;;;;;16.67;9.38;;;23.00;35.80;;;;;;6269848;27;80908;-61
2023/02/28 06:25:53;;;;;;;16.98;9.95;;;23.00;35.70;;;;;;6267852;27;81070;-59
2023/02/28 06:28:53;;;;;;;24.65;10.45;;;23.00;36.20;;;;;;6260186;27;81877;-57
2023/02/28 06:31:54;;;;;;;16.00;9.30;;;23.00;36.60;;;;;;6267920;27;85109;-53
2023/02/28 06:34:57;;;;;;;15.50;9.63;;;22.90;36.30;;;;;;6262201;27;83422;-59
2023/02/28 06:37:57;;;;;;;18.80;9.88;;;22.90;36.20;;;;;;6267087;27;80764;-59
2023/02/28 06:40:58;;;;;;;18.10;10.20;;;22.90;36.50;;;;;;6267277;27;80345;-58
2023/02/28 06:43:58;;;;;;;22.67;11.63;;;22.90;36.90;;;;;;6261796;27;83865;-58
2023/02/28 06:46:59;;;;;;;24.50;11.65;;;22.80;36.50;;;;;;6264542;27;82873;-57
2023/02/28 06:50:01;;;;;;;26.15;12.35;;;22.80;36.60;;;;;;6271783;27;83811;-57
2023/02/28 06:53:01;;;;;;;21.05;10.38;;;22.80;36.80;;;;;;6258180;27;83290;-58
2023/02/28 06:56:02;;;;;;;21.45;12.05;;;22.80;37.20;;;;;;6266532;27;83853;-58
2023/02/28 06:59:03;;;;;;;24.63;11.77;;;22.80;36.80;;;;;;6251717;27;84602;-58
2023/02/28 07:02:06;;;;;;;21.35;11.40;;;22.80;36.20;;;;;;6267240;27;82972;-58
2023/02/28 07:05:06;;;;;;;22.00;12.23;;;22.70;35.70;;;;;;6271723;27;83143;-58
2023/02/28 07:08:08;;;;;;;19.00;11.75;;;22.70;35.80;;;;;;6273726;27;83042;-58
2023/02/28 07:11:08;;;;;;;22.25;12.48;;;22.70;35.50;;;;;;6272188;27;82986;-58
2023/02/28 07:14:09;;;;;;;21.23;12.23;;;22.60;35.10;;;;;;6267134;27;85361;-58
2023/02/28 07:17:11;;;;;;;21.17;12.00;;;22.60;35.00;;;;;;6268682;27;83051;-57
2023/02/28 07:20:12;;;;;;;21.00;11.63;;;22.60;34.90;;;;;;6272662;27;83741;-58
2023/02/28 07:23:12;;;;;;;21.48;11.88;;;22.50;34.70;;;;;;6272295;27;83076;-57
2023/02/28 07:26:14;;;;;;;22.98;11.68;;;22.50;34.70;;;;;;6272808;27;82867;-57
2023/02/28 07:29:14;;;;;;;21.52;11.45;;;22.50;34.60;;;;;;6269095;27;83499;-57
2023/02/28 07:32:15;;;;;;;21.77;11.38;;;22.40;34.50;;;;;;6262762;27;83064;-58
2023/02/28 07:35:15;;;;;;;18.05;11.52;;;22.40;34.50;;;;;;6273834;27;83728;-58
2023/02/28 07:38:16;;;;;;;20.25;11.10;;;22.40;34.40;;;;;;6260194;27;83005;-58
2023/02/28 07:41:17;;;;;;;18.67;10.95;;;22.40;34.20;;;;;;6265349;27;83283;-58
2023/02/28 07:44:18;;;;;;;21.63;11.38;;;22.40;34.20;;;;;;6268369;27;83296;-58
2023/02/28 07:47:18;;;;;;;19.15;11.32;;;22.40;34.20;;;;;;6272629;27;83854;-58
2023/02/28 07:50:19;;;;;;;20.92;10.98;;;22.40;34.00;;;;;;6260643;27;83575;-58
2023/02/28 07:53:19;;;;;;;18.83;10.85;;;22.40;33.90;;;;;;6271423;27;83356;-59
2023/02/28 07:56:20;;;;;;;16.38;10.07;;;22.40;34.00;;;;;;6248925;27;85121;-58
2023/02/28 07:59:20;;;;;;;20.48;11.00;;;22.40;34.00;;;;;;6264067;27;83538;-58
2023/02/28 08:02:21;;;;;;;20.13;10.18;;;22.40;34.10;;;;;;6262942;27;84376;-60
2023/02/28 08:05:21;;;;;;;19.15;11.02;;;22.40;34.30;;;;;;6276686;27;82983;-61
2023/02/28 08:08:22;;;;;;;19.52;11.27;;;22.40;34.40;;;;;;6276839;27;82972;-61
2023/02/28 08:11:23;;;;;;;18.33;10.18;;;22.40;34.40;;;;;;6268961;27;82809;-60
2023/02/28 08:14:23;;;;;;;18.92;9.93;;;22.40;34.60;;;;;;6265533;27;83191;-58
2023/02/28 08:17:24;;;;;;;19.00;10.05;;;22.40;34.70;;;;;;6280692;27;81675;-60
2023/02/28 08:20:24;;;;;;;17.65;10.07;;;22.40;34.80;;;;;;6276776;27;83069;-47
2023/02/28 08:23:25;;;;;;;15.20;9.25;;;22.40;34.90;;;;;;6276612;27;83764;-49
2023/02/28 08:26:25;;;;;;;15.63;8.35;;;22.40;35.00;;;;;;6265315;27;83304;-48
2023/02/28 08:29:26;;;;;;;14.52;9.05;;;22.40;35.10;;;;;;6279543;27;81310;-48
2023/02/28 08:32:26;;;;;;;14.88;8.68;;;22.50;35.30;;;;;;6263917;27;80602;-49
2023/02/28 08:35:27;;;;;;;14.98;8.52;;;22.50;35.30;;;;;;6255257;27;80371;-50
2023/02/28 08:38:27;;;;;;;16.35;8.70;;;22.60;35.00;;;;;;6280228;27;80363;-49
2023/02/28 08:41:28;;;;;;;14.32;8.27;;;22.60;34.90;;;;;;6269433;27;80432;-48
2023/02/28 08:44:28;;;;;;;14.88;8.55;;;22.70;34.40;;;;;;6276643;27;80736;-49
2023/02/28 08:47:29;;;;;;;17.17;9.02;;;22.80;34.30;;;;;;6279061;27;80198;-50
2023/02/28 08:50:29;;;;;;;14.80;8.35;;;22.90;33.90;;;;;;6273589;27;84180;-52
2023/02/28 08:53:30;;;;;;;12.77;7.93;;;23.00;33.80;;;;;;6243838;27;85099;-66
2023/02/28 08:56:30;;;;;;;11.55;7.40;;;23.10;33.60;;;;;;6252241;27;80653;-59
2023/02/28 08:59:31;;;;;;;15.85;7.38;;;23.20;34.10;;;;;;6152935;27;82277;-58
2023/02/28 09:02:31;;;;;;;13.43;8.05;;;23.30;34.00;;;;;;6139777;27;83709;-59
2023/02/28 09:05:32;;;;;;;11.07;6.80;;;23.40;34.10;;;;;;6142895;27;82322;-59
2023/02/28 09:08:33;;;;;;;10.77;7.00;;;23.50;34.40;;;;;;6161390;27;82380;-59
2023/02/28 09:11:34;;;;;;;18.70;6.80;;;23.60;34.50;;;;;;6254641;27;80696;-59
2023/02/28 09:14:34;;;;;;;10.57;5.78;;;23.70;34.80;;;;;;6266447;27;82692;-60
2023/02/28 09:17:35;;;;;;;9.40;5.55;;;23.80;34.60;;;;;;6267186;27;81662;-61
2023/02/28 09:20:36;;;;;;;10.38;6.45;;;23.90;34.70;;;;;;6276355;27;80939;-60
2023/02/28 09:23:38;;;;;;;8.13;5.25;;;24.00;35.30;;;;;;6267372;27;80869;-65
2023/02/28 09:26:38;;;;;;;12.38;5.53;;;24.00;35.40;;;;;;6270805;27;84104;-57
2023/02/28 09:29:39;;;;;;;9.27;5.13;;;24.00;35.10;;;;;;6253610;27;83086;-59
2023/02/28 09:32:39;;;;;;;60.08;32.35;;;24.10;35.50;;;;;;6262862;27;82621;-60
2023/02/28 09:35:40;;;;;;;120.03;60.17;;;24.10;35.20;;;;;;6270329;27;82906;-60
2023/02/28 09:38:40;;;;;;;150.80;72.32;;;24.10;35.30;;;;;;6252297;27;83659;-60
2023/02/28 09:41:47;;;;;;;168.82;81.07;;;24.00;35.50;;;;;;6255308;27;87012;-60
2023/02/28 09:44:48;;;;;;;216.20;98.88;;;24.00;35.40;;;;;;6272039;27;87028;-60
2023/02/28 09:47:49;;;;;;;218.27;107.43;;;24.00;35.50;;;;;;6270172;27;88176;-61
2023/02/28 09:50:50;;;;;;;218.63;106.10;;;24.00;35.60;;;;;;6257889;27;85417;-54
2023/02/28 09:53:51;;;;;;;181.65;84.78;;;24.00;35.30;;;;;;6259064;27;85772;-49
2023/02/28 09:56:52;;;;;;;151.00;72.97;;;24.10;35.50;;;;;;6255437;27;87860;-49
2023/02/28 09:59:52;;;;;;;120.55;59.33;;;24.10;35.60;;;;;;6265183;27;88090;-62
2023/02/28 10:02:53;;;;;;;137.32;65.65;;;24.20;35.40;;;;;;6262144;27;86313;-49
2023/02/28 10:05:53;;;;;;;138.88;66.05;;;24.20;35.20;;;;;;6254184;27;86298;-49
2023/02/28 10:08:54;;;;;;;144.45;70.10;;;24.20;35.00;;;;;;6263878;27;83181;-59
2023/02/28 10:11:55;;;;;;;142.52;67.97;;;24.10;35.10;;;;;;6255799;27;92738;-59
2023/02/28 10:14:55;;;;;;;147.55;69.97;;;24.20;35.10;;;;;;6260835;27;83937;-59
2023/02/28 10:17:56;;;;;;;163.65;79.05;;;24.20;34.90;;;;;;6267206;27;83021;-59
2023/02/28 10:20:56;;;;;;;163.85;78.00;;;24.20;34.90;;;;;;6253273;27;86056;-60
2023/02/28 10:23:57;;;;;;;159.35;77.80;;;24.20;34.80;;;;;;6263073;27;85114;-60
2023/02/28 10:26:58;;;;;;;155.52;76.32;;;24.30;34.80;;;;;;6262012;27;84932;-60
2023/02/28 10:29:59;;;;;;;147.13;66.90;;;24.30;34.90;;;;;;6257886;27;83322;-51
2023/02/28 10:32:59;;;;;;;119.90;58.78;;;24.30;35.00;;;;;;6261547;27;83455;-51
2023/02/28 10:36:00;;;;;;;123.60;55.42;;;24.30;35.10;;;;;;6263715;27;83497;-50
2023/02/28 10:39:00;;;;;;;107.50;49.58;;;24.30;35.10;;;;;;6259767;27;83658;-53
2023/02/28 10:42:01;;;;;;;98.03;46.28;;;24.40;35.30;;;;;;6266657;27;83751;-50
2023/02/28 10:45:01;;;;;;;81.68;41.25;;;24.40;35.20;;;;;;6263717;27;83600;-50
2023/02/28 10:48:02;;;;;;;77.85;37.97;;;24.40;35.00;;;;;;6270228;27;83236;-61
2023/02/28 10:51:03;;;;;;;66.05;34.53;;;24.50;35.30;;;;;;6254747;27;85819;-60
2023/02/28 10:54:04;;;;;;;62.65;31.42;;;24.40;35.30;;;;;;6257340;27;86461;-60
2023/02/28 10:57:05;;;;;;;47.75;22.42;;;24.50;35.40;;;;;;6260666;27;83412;-61
2023/02/28 11:00:05;;;;;;;34.08;16.30;;;24.30;33.50;;;;;;6258683;27;84199;-61
2023/02/28 11:03:06;;;;;;;28.30;14.15;;;24.00;31.20;;;;;;6264500;27;84003;-63
2023/02/28 11:06:07;;;;;;;28.52;14.30;;;23.80;31.40;;;;;;6260124;27;83427;-61
2023/02/28 11:09:08;;;;;;;26.45;12.98;;;23.80;31.30;;;;;;6231379;27;85945;-59
2023/02/28 11:12:08;;;;;;;22.70;13.10;;;24.00;32.20;;;;;;6260776;27;87608;-60
2023/02/28 11:15:09;;;;;;;27.30;13.35;;;24.20;32.10;;;;;;6263882;27;83081;-60
2023/02/28 11:18:09;;;;;;;23.75;11.70;;;24.40;33.00;;;;;;6253292;27;83260;-59
2023/02/28 11:21:10;;;;;;;19.40;10.98;;;24.50;33.60;;;;;;6261226;27;83349;-60
2023/02/28 11:24:10;;;;;;;18.77;10.25;;;24.70;33.90;;;;;;6259127;27;82752;-61
2023/02/28 11:27:11;;;;;;;19.88;9.65;;;24.80;34.00;;;;;;6257025;27;83576;-60
2023/02/28 11:30:11;;;;;;;18.70;9.43;;;24.80;34.00;;;;;;6266252;27;83136;-67
2023/02/28 11:33:12;;;;;;;13.73;8.32;;;24.90;34.00;;;;;;6268437;27;80731;-63
2023/02/28 11:36:12;;;;;;;18.05;9.43;;;25.00;34.00;;;;;;6264815;27;81067;-64
2023/02/28 11:39:13;;;;;;;11.60;7.35;;;25.00;34.10;;;;;;6269593;27;86026;-62
2023/02/28 11:42:14;;;;;;;14.75;7.80;;;25.10;34.20;;;;;;6263009;27;83099;-62
2023/02/28 11:45:15;;;;;;;12.00;6.68;;;25.20;34.30;;;;;;6260396;27;81340;-64
2023/02/28 11:48:15;;;;;;;10.90;6.22;;;25.20;34.40;;;;;;6261698;27;81297;-63
2023/02/28 11:51:16;;;;;;;9.57;5.72;;;25.20;34.30;;;;;;6254957;27;80632;-62
2023/02/28 11:54:16;;;;;;;12.73;6.00;;;25.30;34.20;;;;;;6256178;27;81421;-62
2023/02/28 11:57:17;;;;;;;8.85;5.25;;;25.30;34.40;;;;;;6259794;27;80509;-59
2023/02/28 12:00:17;;;;;;;10.63;5.63;;;25.30;34.10;;;;;;6253208;27;80834;-60
2023/02/28 12:03:18;;;;;;;10.00;5.68;;;25.30;34.10;;;;;;6263553;27;81958;-63
2023/02/28 12:06:19;;;;;;;10.77;4.80;;;25.40;34.10;;;;;;6259558;27;85803;-63
2023/02/28 12:09:19;;;;;;;10.23;5.32;;;25.40;34.30;;;;;;6260316;27;82521;-65
2023/02/28 12:12:20;;;;;;;7.18;4.57;;;25.30;34.70;;;;;;6270816;27;81520;-63
2023/02/28 12:15:20;;;;;;;6.70;3.88;;;25.30;35.50;;;;;;6265762;27;83016;-60
2023/02/28 12:18:21;;;;;;;7.25;3.85;;;25.20;36.20;;;;;;6246938;27;87539;-61
2023/02/28 12:21:21;;;;;;;7.00;3.88;;;25.30;36.70;;;;;;6226733;27;83549;-60
2023/02/28 12:24:22;;;;;;;5.68;3.00;;;25.30;37.60;;;;;;6243829;27;82307;-61
2023/02/28 12:27:22;;;;;;;7.22;3.30;;;25.30;38.50;;;;;;6265945;27;82239;-63
2023/02/28 12:30:23;;;;;;;3.85;2.85;;;25.40;39.10;;;;;;6265665;27;81717;-61
2023/02/28 12:33:24;;;;;;;5.63;2.50;;;25.30;40.00;;;;;;6268851;27;80592;-62
2023/02/28 12:36:26;;;;;;;3.72;2.80;;;25.30;39.90;;;;;;6271100;27;80447;-62
2023/02/28 12:39:26;;;;;;;4.63;2.60;;;25.30;40.00;;;;;;6270248;27;81720;-60
2023/02/28 12:42:28;;;;;;;3.58;2.33;;;25.30;40.30;;;;;;6255038;27;81280;-60
2023/02/28 12:45:28;;;;;;;6.15;2.17;;;25.30;40.30;;;;;;6261234;27;83061;-62
2023/02/28 12:48:29;;;;;;;5.68;2.53;;;25.40;40.30;;;;;;6261295;27;81064;-61
2023/02/28 12:51:30;;;;;;;7.90;2.22;;;25.40;40.40;;;;;;6261389;27;80964;-61
2023/02/28 12:54:30;;;;;;;5.05;2.47;;;25.30;40.40;;;;;;6259411;27;86918;-59
2023/02/28 12:57:31;;;;;;;3.40;2.35;;;25.30;40.40;;;;;;6261557;27;86977;-58
2023/02/28 13:00:31;;;;;;;3.53;2.05;;;25.30;40.80;;;;;;6265619;27;80770;-58
2023/02/28 13:03:32;;;;;;;6.60;2.00;;;25.30;40.80;;;;;;6258262;27;81355;-59
2023/02/28 13:06:32;;;;;;;3.13;2.15;;;25.30;40.90;;;;;;6267933;27;82644;-59
2023/02/28 13:09:33;;;;;;;3.67;2.45;;;25.30;41.40;;;;;;6260333;27;80831;-58
2023/02/28 13:12:33;;;;;;;2.63;1.90;;;25.30;41.40;;;;;;6260685;27;80222;-58
2023/02/28 13:15:40;;;;;;;3.30;2.30;;;25.30;41.50;;;;;;6263738;27;80532;-59
2023/02/28 13:18:40;;;;;;;3.05;2.25;;;25.40;41.90;;;;;;6242049;27;84974;-57
2023/02/28 13:21:41;;;;;;;5.38;2.40;;;25.30;41.80;;;;;;6264161;27;83720;-58
2023/02/28 13:24:41;;;;;;;2.80;1.90;;;25.30;41.80;;;;;;6267690;27;80520;-58
2023/02/28 13:27:43;;;;;;;2.42;2.05;;;25.30;42.00;;;;;;6269540;27;81170;-64
2023/02/28 13:30:44;;;;;;;3.03;1.90;;;25.40;42.10;;;;;;6247125;27;81482;-59
2023/02/28 13:33:44;;;;;;;8.98;2.22;;;25.40;42.60;;;;;;6255473;27;80513;-55
2023/02/28 13:36:45;;;;;;;9.02;1.95;;;25.30;42.70;;;;;;6268434;27;85514;-57
2023/02/28 13:39:45;;;;;;;6.32;2.15;;;25.30;42.70;;;;;;6265300;27;81119;-59
2023/02/28 13:42:46;;;;;;;4.47;2.05;;;25.30;42.50;;;;;;6250094;27;81703;-58
2023/02/28 13:45:46;;;;;;;5.28;1.90;;;25.40;42.80;;;;;;6277332;27;80593;-60
2023/02/28 13:48:47;;;;;;;7.07;1.90;;;25.40;42.80;;;;;;6250302;27;81324;-58
2023/02/28 13:51:48;;;;;;;6.18;2.03;;;25.40;43.20;;;;;;6259089;27;80644;-66
2023/02/28 13:54:48;;;;;;;5.05;2.00;;;25.40;43.40;;;;;;6263942;27;85575;-58
2023/02/28 13:57:49;;;;;;;4.03;2.22;;;25.40;43.00;;;;;;6261598;27;83704;-59
2023/02/28 14:00:49;;;;;;;2.20;1.88;;;25.40;44.20;;;;;;6266673;27;82773;-60
2023/02/28 14:03:50;;;;;;;3.15;2.13;;;25.50;43.90;;;;;;6261497;27;80531;-60
2023/02/28 14:06:50;;;;;;;3.05;2.13;;;25.40;43.90;;;;;;6255887;27;84075;-58
2023/02/28 14:09:51;;;;;;;2.67;2.00;;;25.40;43.90;;;;;;6258697;27;82581;-63
2023/02/28 14:12:51;;;;;;;2.58;2.00;;;25.40;43.90;;;;;;6259319;27;84357;-59
2023/02/28 14:15:52;;;;;;;5.05;2.22;;;25.40;44.40;;;;;;6261168;27;81934;-65
2023/02/28 14:18:52;;;;;;;2.78;2.10;;;25.30;44.20;;;;;;6263666;27;80475;-65
2023/02/28 14:21:53;;;;;;;4.15;2.35;;;25.30;44.60;;;;;;6274360;27;80342;-61
2023/02/28 14:24:53;;;;;;;3.05;1.90;;;25.30;44.60;;;;;;6257206;27;81321;-61
2023/02/28 14:27:54;;;;;;;3.88;2.58;;;25.30;45.30;;;;;;6265697;27;80878;-62
2023/02/28 14:30:55;;;;;;;7.30;2.30;;;25.30;45.30;;;;;;6261450;27;85621;-64
2023/02/28 14:33:55;;;;;;;3.58;2.10;;;25.20;45.30;;;;;;6264283;27;81062;-62
2023/02/28 14:36:56;;;;;;;3.33;2.20;;;25.30;44.80;;;;;;6271334;27;82004;-63
2023/02/28 14:39:56;;;;;;;3.35;2.22;;;25.30;45.10;;;;;;6270313;27;80981;-62
2023/02/28 14:42:57;;;;;;;3.58;2.10;;;25.20;45.00;;;;;;6236750;27;82135;-62
2023/02/28 14:45:57;;;;;;;2.10;1.70;;;25.30;45.30;;;;;;6266865;27;81092;-62
2023/02/28 14:48:58;;;;;;;3.85;2.03;;;25.20;45.40;;;;;;6260406;27;84793;-62
2023/02/28 14:52:01;;;;;;;5.00;2.25;;;25.10;45.30;;;;;;6263810;27;82112;-64
2023/02/28 14:55:01;;;;;;;3.08;2.22;;;25.20;45.60;;;;;;6263799;27;84156;-61
2023/02/28 14:58:06;;;;;;;2.60;2.00;;;25.20;45.20;;;;;;6263107;27;80509;-61
2023/02/28 15:01:07;;;;;;;3.55;2.35;;;25.10;45.40;;;;;;6256114;27;82263;-62
2023/02/28 15:04:07;;;;;;;2.40;2.05;;;25.10;45.30;;;;;;6260275;27;81053;-61
2023/02/28 15:07:08;;;;;;;6.47;2.35;;;25.00;45.50;;;;;;6253026;27;80764;-63
2023/02/28 15:10:08;;;;;;;3.17;2.15;;;25.00;45.40;;;;;;6261249;27;80570;-61
2023/02/28 15:13:09;;;;;;;3.35;2.50;;;25.10;45.70;;;;;;6259479;27;80346;-61
2023/02/28 15:16:10;;;;;;;4.15;2.25;;;25.00;45.20;;;;;;6259650;27;81199;-62
2023/02/28 15:19:10;;;;;;;3.33;2.17;;;24.90;45.40;;;;;;6260161;27;82949;-61
2023/02/28 15:22:11;;;;;;;3.17;2.20;;;24.90;45.50;;;;;;6257077;27;80644;-60
2023/02/28 15:25:12;;;;;;;2.58;2.35;;;24.90;45.10;;;;;;6260597;27;85528;-58